sensor_id;sensor_type;location;lat;lon;timestamp;temperature;humidity
18581;DHT22;9420;50.876;7.012;2023-04-23T00:00:42;11.50;1.00
18581;DHT22;9420;50.876;7.012;2023-04-23T00:03:12;11.60;1.00
18581;DHT22;9420;50.876;7.012;2023-04-23T00:05:41;11.60;69.10
18581;DHT22;9420;50.876;7.012;2023-04-23T00:08:10;11.60;99.90
18581;DHT22;9420;50.876;7.012;2023-04-23T00:10:38;11.50;99.90
18581;DHT22;9420;50.876;7.012;2023-04-23T00:13:05;11.50;1.00
18581;DHT22;9420;50.876;7.012;2023-04-23T00:15:35;11.50;1.00
18581;DHT22;9420;50.876;7.012;2023-04-23T00:18:04;11.40;1.00
18581;DHT22;9420;50.876;7.012;2023-04-23T00:20:31;11.40;1.00
18581;DHT22;9420;50.876;7.012;2023-04-23T00:22:58;11.30;1.00
18581;DHT22;9420;50.876;7.012;2023-04-23T00:25:26;11.30;99.90
18581;DHT22;9420;50.876;7.012;2023-04-23T00:27:53;11.40;99.90
18581;DHT22;9420;50.876;7.012;2023-04-23T00:30:20;11.30;95.00
18581;DHT22;9420;50.876;7.012;2023-04-23T00:32:47;11.30;99.90
18581;DHT22;9420;50.876;7.012;2023-04-23T00:35:16;11.20;99.90
18581;DHT22;9420;50.876;7.012;2023-04-23T00:37:45;11.20;1.00
18581;DHT22;9420;50.876;7.012;2023-04-23T00:40:12;11.10;1.00
18581;DHT22;9420;50.876;7.012;2023-04-23T00:42:40;11.20;1.00
18581;DHT22;9420;50.876;7.012;2023-04-23T00:45:09;11.10;1.00
18581;DHT22;9420;50.876;7.012;2023-04-23T00:47:37;11.10;1.00
18581;DHT22;9420;50.876;7.012;2023-04-23T00:50:07;11.00;1.00
18581;DHT22;9420;50.876;7.012;2023-04-23T00:52:35;11.00;1.00
18581;DHT22;9420;50.876;7.012;2023-04-23T00:55:04;10.80;1.00
18581;DHT22;9420;50.876;7.012;2023-04-23T00:57:32;10.80;1.00
18581;DHT22;9420;50.876;7.012;2023-04-23T01:00:01;10.80;1.00
18581;DHT22;9420;50.876;7.012;2023-04-23T01:02:30;10.70;25.00
18581;DHT22;9420;50.876;7.012;2023-04-23T01:04:57;10.80;99.90
18581;DHT22;9420;50.876;7.012;2023-04-23T01:07:27;10.70;99.90
18581;DHT22;9420;50.876;7.012;2023-04-23T01:09:55;10.80;99.90
18581;DHT22;9420;50.876;7.012;2023-04-23T01:12:22;10.80;99.90
18581;DHT22;9420;50.876;7.012;2023-04-23T01:14:50;10.70;99.90
18581;DHT22;9420;50.876;7.012;2023-04-23T01:17:17;10.70;1.00
18581;DHT22;9420;50.876;7.012;2023-04-23T01:19:44;10.70;1.00
18581;DHT22;9420;50.876;7.012;2023-04-23T01:22:13;10.70;1.00
18581;DHT22;9420;50.876;7.012;2023-04-23T01:24:41;10.70;1.00
18581;DHT22;9420;50.876;7.012;2023-04-23T01:27:08;10.60;1.00
18581;DHT22;9420;50.876;7.012;2023-04-23T01:29:37;10.60;1.00
18581;DHT22;9420;50.876;7.012;2023-04-23T01:32:06;10.60;1.00
18581;DHT22;9420;50.876;7.012;2023-04-23T01:34:34;10.50;99.90
18581;DHT22;9420;50.876;7.012;2023-04-23T01:37:02;10.30;1.00
18581;DHT22;9420;50.876;7.012;2023-04-23T01:39:31;10.30;1.00
18581;DHT22;9420;50.876;7.012;2023-04-23T01:41:58;10.20;1.00
18581;DHT22;9420;50.876;7.012;2023-04-23T01:44:26;10.20;1.00
18581;DHT22;9420;50.876;7.012;2023-04-23T01:46:54;10.20;99.90
18581;DHT22;9420;50.876;7.012;2023-04-23T01:49:22;10.20;99.90
18581;DHT22;9420;50.876;7.012;2023-04-23T01:51:49;10.10;99.90
18581;DHT22;9420;50.876;7.012;2023-04-23T01:54:16;10.20;99.90
18581;DHT22;9420;50.876;7.012;2023-04-23T01:56:44;10.20;1.00
18581;DHT22;9420;50.876;7.012;2023-04-23T01:59:11;10.20;1.00
18581;DHT22;9420;50.876;7.012;2023-04-23T02:01:40;10.20;1.00
18581;DHT22;9420;50.876;7.012;2023-04-23T02:04:10;10.20;1.00
18581;DHT22;9420;50.876;7.012;2023-04-23T02:06:38;10.20;54.90
18581;DHT22;9420;50.876;7.012;2023-04-23T02:09:06;10.20;99.90
18581;DHT22;9420;50.876;7.012;2023-04-23T02:11:33;10.20;99.90
18581;DHT22;9420;50.876;7.012;2023-04-23T02:14:03;10.20;99.90
18581;DHT22;9420;50.876;7.012;2023-04-23T02:16:30;10.30;1.00
18581;DHT22;9420;50.876;7.012;2023-04-23T02:18:59;10.40;1.00
18581;DHT22;9420;50.876;7.012;2023-04-23T02:21:26;10.40;99.90
18581;DHT22;9420;50.876;7.012;2023-04-23T02:23:54;10.50;99.90
18581;DHT22;9420;50.876;7.012;2023-04-23T02:26:22;10.40;1.00
18581;DHT22;9420;50.876;7.012;2023-04-23T02:28:49;10.30;1.00
18581;DHT22;9420;50.876;7.012;2023-04-23T02:31:18;10.20;39.70
18581;DHT22;9420;50.876;7.012;2023-04-23T02:33:45;10.10;99.90
18581;DHT22;9420;50.876;7.012;2023-04-23T02:36:12;10.00;99.90
18581;DHT22;9420;50.876;7.012;2023-04-23T02:38:39;10.00;99.90
18581;DHT22;9420;50.876;7.012;2023-04-23T02:41:09;10.00;99.90
18581;DHT22;9420;50.876;7.012;2023-04-23T02:43:36;10.00;1.00
18581;DHT22;9420;50.876;7.012;2023-04-23T02:46:03;10.00;99.90
18581;DHT22;9420;50.876;7.012;2023-04-23T02:48:36;9.90;99.90
18581;DHT22;9420;50.876;7.012;2023-04-23T02:51:05;10.00;1.00
18581;DHT22;9420;50.876;7.012;2023-04-23T02:53:33;9.90;1.00
18581;DHT22;9420;50.876;7.012;2023-04-23T02:56:00;9.90;1.00
18581;DHT22;9420;50.876;7.012;2023-04-23T02:58:27;9.90;1.00
18581;DHT22;9420;50.876;7.012;2023-04-23T03:00:56;9.80;1.00
18581;DHT22;9420;50.876;7.012;2023-04-23T03:03:23;9.70;99.90
18581;DHT22;9420;50.876;7.012;2023-04-23T03:05:52;9.60;99.90
18581;DHT22;9420;50.876;7.012;2023-04-23T03:08:20;9.60;99.90
18581;DHT22;9420;50.876;7.012;2023-04-23T03:10:47;9.60;1.00
18581;DHT22;9420;50.876;7.012;2023-04-23T03:13:15;9.50;1.00
18581;DHT22;9420;50.876;7.012;2023-04-23T03:15:42;9.60;1.00
18581;DHT22;9420;50.876;7.012;2023-04-23T03:18:09;9.60;99.90
18581;DHT22;9420;50.876;7.012;2023-04-23T03:20:36;9.60;99.90
18581;DHT22;9420;50.876;7.012;2023-04-23T03:23:05;9.60;99.90
18581;DHT22;9420;50.876;7.012;2023-04-23T03:25:32;9.50;99.90
18581;DHT22;9420;50.876;7.012;2023-04-23T03:27:59;9.60;99.90
18581;DHT22;9420;50.876;7.012;2023-04-23T03:30:27;9.50;99.90
18581;DHT22;9420;50.876;7.012;2023-04-23T03:32:55;9.50;99.90
18581;DHT22;9420;50.876;7.012;2023-04-23T03:35:23;9.50;99.90
18581;DHT22;9420;50.876;7.012;2023-04-23T03:37:51;9.50;99.90
18581;DHT22;9420;50.876;7.012;2023-04-23T03:40:20;9.60;1.00
18581;DHT22;9420;50.876;7.012;2023-04-23T03:42:47;9.70;99.90
18581;DHT22;9420;50.876;7.012;2023-04-23T03:45:14;9.80;1.00
18581;DHT22;9420;50.876;7.012;2023-04-23T03:47:42;9.90;1.00
18581;DHT22;9420;50.876;7.012;2023-04-23T03:50:10;10.00;69.30
18581;DHT22;9420;50.876;7.012;2023-04-23T03:52:38;10.00;99.90
18581;DHT22;9420;50.876;7.012;2023-04-23T03:55:06;10.20;99.90
18581;DHT22;9420;50.876;7.012;2023-04-23T03:57:35;10.20;99.90
18581;DHT22;9420;50.876;7.012;2023-04-23T04:00:03;10.20;1.00
18581;DHT22;9420;50.876;7.012;2023-04-23T04:02:33;10.30;99.90
18581;DHT22;9420;50.876;7.012;2023-04-23T04:05:00;10.30;99.90
18581;DHT22;9420;50.876;7.012;2023-04-23T04:07:27;10.40;99.90
18581;DHT22;9420;50.876;7.012;2023-04-23T04:09:54;10.40;99.90
18581;DHT22;9420;50.876;7.012;2023-04-23T04:12:21;10.50;99.90
18581;DHT22;9420;50.876;7.012;2023-04-23T04:14:49;10.50;99.90
18581;DHT22;9420;50.876;7.012;2023-04-23T04:17:16;10.60;99.90
18581;DHT22;9420;50.876;7.012;2023-04-23T04:19:43;10.60;61.40
18581;DHT22;9420;50.876;7.012;2023-04-23T04:22:10;10.60;99.90
18581;DHT22;9420;50.876;7.012;2023-04-23T04:24:37;10.60;99.90
18581;DHT22;9420;50.876;7.012;2023-04-23T04:27:06;10.70;99.90
18581;DHT22;9420;50.876;7.012;2023-04-23T04:29:33;10.70;99.90
18581;DHT22;9420;50.876;7.012;2023-04-23T04:32:02;10.60;93.90
18581;DHT22;9420;50.876;7.012;2023-04-23T04:34:29;10.60;99.90
18581;DHT22;9420;50.876;7.012;2023-04-23T04:36:56;10.70;99.90
18581;DHT22;9420;50.876;7.012;2023-04-23T04:39:23;10.70;99.90
18581;DHT22;9420;50.876;7.012;2023-04-23T04:41:50;10.70;99.90
18581;DHT22;9420;50.876;7.012;2023-04-23T04:44:18;10.70;99.90
18581;DHT22;9420;50.876;7.012;2023-04-23T04:46:45;10.70;99.90
18581;DHT22;9420;50.876;7.012;2023-04-23T04:49:14;10.80;99.90
18581;DHT22;9420;50.876;7.012;2023-04-23T04:51:43;10.80;99.90
18581;DHT22;9420;50.876;7.012;2023-04-23T04:54:10;10.80;99.90
18581;DHT22;9420;50.876;7.012;2023-04-23T04:56:37;10.90;99.90
18581;DHT22;9420;50.876;7.012;2023-04-23T04:59:05;10.80;99.90
18581;DHT22;9420;50.876;7.012;2023-04-23T05:01:32;10.90;99.90
18581;DHT22;9420;50.876;7.012;2023-04-23T05:04:01;10.90;99.90
18581;DHT22;9420;50.876;7.012;2023-04-23T05:06:30;11.00;99.90
18581;DHT22;9420;50.876;7.012;2023-04-23T05:08:57;11.00;99.90
18581;DHT22;9420;50.876;7.012;2023-04-23T05:11:24;11.10;99.90
18581;DHT22;9420;50.876;7.012;2023-04-23T05:13:52;11.10;99.90
18581;DHT22;9420;50.876;7.012;2023-04-23T05:16:19;11.10;99.90
18581;DHT22;9420;50.876;7.012;2023-04-23T05:18:46;11.10;99.90
18581;DHT22;9420;50.876;7.012;2023-04-23T05:21:13;11.10;99.90
18581;DHT22;9420;50.876;7.012;2023-04-23T05:23:42;11.20;99.90
18581;DHT22;9420;50.876;7.012;2023-04-23T05:26:09;11.20;82.70
18581;DHT22;9420;50.876;7.012;2023-04-23T05:28:36;11.20;99.90
18581;DHT22;9420;50.876;7.012;2023-04-23T05:31:03;11.30;99.90
18581;DHT22;9420;50.876;7.012;2023-04-23T05:33:30;11.30;99.90
18581;DHT22;9420;50.876;7.012;2023-04-23T05:35:57;11.30;99.90
18581;DHT22;9420;50.876;7.012;2023-04-23T05:38:24;11.40;19.70
18581;DHT22;9420;50.876;7.012;2023-04-23T05:40:53;11.40;1.00
18581;DHT22;9420;50.876;7.012;2023-04-23T05:43:20;11.50;1.00
18581;DHT22;9420;50.876;7.012;2023-04-23T05:45:47;11.60;1.00
18581;DHT22;9420;50.876;7.012;2023-04-23T05:48:14;11.60;1.00
18581;DHT22;9420;50.876;7.012;2023-04-23T05:50:41;11.70;1.00
18581;DHT22;9420;50.876;7.012;2023-04-23T05:53:08;11.70;99.90
18581;DHT22;9420;50.876;7.012;2023-04-23T05:55:35;11.80;99.90
18581;DHT22;9420;50.876;7.012;2023-04-23T05:58:03;11.90;99.90
18581;DHT22;9420;50.876;7.012;2023-04-23T06:00:31;12.00;69.90
18581;DHT22;9420;50.876;7.012;2023-04-23T06:02:59;12.10;99.90
18581;DHT22;9420;50.876;7.012;2023-04-23T06:05:26;12.10;1.00
18581;DHT22;9420;50.876;7.012;2023-04-23T06:07:53;12.10;99.90
18581;DHT22;9420;50.876;7.012;2023-04-23T06:10:20;12.20;99.90
18581;DHT22;9420;50.876;7.012;2023-04-23T06:12:47;12.20;99.90
18581;DHT22;9420;50.876;7.012;2023-04-23T06:15:16;12.30;27.70
18581;DHT22;9420;50.876;7.012;2023-04-23T06:17:43;12.30;1.00
18581;DHT22;9420;50.876;7.012;2023-04-23T06:20:10;12.40;1.00
18581;DHT22;9420;50.876;7.012;2023-04-23T06:22:37;12.40;1.00
18581;DHT22;9420;50.876;7.012;2023-04-23T06:25:06;12.50;1.00
18581;DHT22;9420;50.876;7.012;2023-04-23T06:27:33;12.60;1.00
18581;DHT22;9420;50.876;7.012;2023-04-23T06:30:00;12.70;99.90
18581;DHT22;9420;50.876;7.012;2023-04-23T06:32:29;12.80;1.00
18581;DHT22;9420;50.876;7.012;2023-04-23T06:34:56;12.80;1.00
18581;DHT22;9420;50.876;7.012;2023-04-23T06:37:24;12.90;1.00
18581;DHT22;9420;50.876;7.012;2023-04-23T06:39:52;13.00;1.00
18581;DHT22;9420;50.876;7.012;2023-04-23T06:42:21;13.10;99.90
18581;DHT22;9420;50.876;7.012;2023-04-23T06:44:47;13.10;99.90
18581;DHT22;9420;50.876;7.012;2023-04-23T06:47:16;13.10;99.90
18581;DHT22;9420;50.876;7.012;2023-04-23T06:49:44;13.10;1.00
18581;DHT22;9420;50.876;7.012;2023-04-23T06:52:11;13.10;1.00
18581;DHT22;9420;50.876;7.012;2023-04-23T06:54:38;13.10;1.00
18581;DHT22;9420;50.876;7.012;2023-04-23T06:57:06;13.20;1.00
18581;DHT22;9420;50.876;7.012;2023-04-23T06:59:32;13.30;1.00
18581;DHT22;9420;50.876;7.012;2023-04-23T07:02:00;13.50;99.90
18581;DHT22;9420;50.876;7.012;2023-04-23T07:04:27;13.60;99.90
18581;DHT22;9420;50.876;7.012;2023-04-23T07:06:55;13.70;99.90
18581;DHT22;9420;50.876;7.012;2023-04-23T07:09:22;13.70;4.80
18581;DHT22;9420;50.876;7.012;2023-04-23T07:11:49;13.70;1.00
18581;DHT22;9420;50.876;7.012;2023-04-23T07:14:17;13.70;99.90
18581;DHT22;9420;50.876;7.012;2023-04-23T07:16:44;13.70;99.90
18581;DHT22;9420;50.876;7.012;2023-04-23T07:19:11;13.70;99.90
18581;DHT22;9420;50.876;7.012;2023-04-23T07:21:38;13.80;99.90
18581;DHT22;9420;50.876;7.012;2023-04-23T07:24:06;13.90;99.90
18581;DHT22;9420;50.876;7.012;2023-04-23T07:26:33;13.90;44.70
18581;DHT22;9420;50.876;7.012;2023-04-23T07:29:01;13.90;1.00
18581;DHT22;9420;50.876;7.012;2023-04-23T07:31:29;14.00;1.00
18581;DHT22;9420;50.876;7.012;2023-04-23T07:33:56;14.30;1.00
18581;DHT22;9420;50.876;7.012;2023-04-23T07:36:23;14.40;99.90
18581;DHT22;9420;50.876;7.012;2023-04-23T07:38:50;14.50;99.90
18581;DHT22;9420;50.876;7.012;2023-04-23T07:41:18;14.70;99.90
18581;DHT22;9420;50.876;7.012;2023-04-23T07:43:46;14.80;1.00
18581;DHT22;9420;50.876;7.012;2023-04-23T07:46:13;15.00;1.00
18581;DHT22;9420;50.876;7.012;2023-04-23T07:48:40;15.10;1.00
18581;DHT22;9420;50.876;7.012;2023-04-23T07:51:07;15.20;1.00
18581;DHT22;9420;50.876;7.012;2023-04-23T07:53:35;15.30;1.00
18581;DHT22;9420;50.876;7.012;2023-04-23T07:56:02;15.10;99.90
18581;DHT22;9420;50.876;7.012;2023-04-23T07:58:30;15.20;99.90
18581;DHT22;9420;50.876;7.012;2023-04-23T08:01:00;15.10;29.00
18581;DHT22;9420;50.876;7.012;2023-04-23T08:03:27;15.10;16.70
18581;DHT22;9420;50.876;7.012;2023-04-23T08:05:54;15.30;1.00
18581;DHT22;9420;50.876;7.012;2023-04-23T08:08:22;15.60;88.50
18581;DHT22;9420;50.876;7.012;2023-04-23T08:10:49;15.70;67.70
18581;DHT22;9420;50.876;7.012;2023-04-23T08:13:16;15.80;1.00
18581;DHT22;9420;50.876;7.012;2023-04-23T08:15:45;15.80;1.00
18581;DHT22;9420;50.876;7.012;2023-04-23T08:18:13;15.90;1.00
18581;DHT22;9420;50.876;7.012;2023-04-23T08:20:40;15.80;1.00
18581;DHT22;9420;50.876;7.012;2023-04-23T08:23:07;15.80;1.00
18581;DHT22;9420;50.876;7.012;2023-04-23T08:25:34;15.80;1.00
18581;DHT22;9420;50.876;7.012;2023-04-23T08:28:01;15.60;99.90
18581;DHT22;9420;50.876;7.012;2023-04-23T08:30:29;15.60;1.00
18581;DHT22;9420;50.876;7.012;2023-04-23T08:32:57;15.70;1.00
18581;DHT22;9420;50.876;7.012;2023-04-23T08:35:26;15.80;1.00
18581;DHT22;9420;50.876;7.012;2023-04-23T08:37:53;15.90;99.90
18581;DHT22;9420;50.876;7.012;2023-04-23T08:40:20;15.90;99.90
18581;DHT22;9420;50.876;7.012;2023-04-23T08:45:17;15.90;99.90
18581;DHT22;9420;50.876;7.012;2023-04-23T08:47:45;16.00;99.90
18581;DHT22;9420;50.876;7.012;2023-04-23T08:50:14;16.00;99.90
18581;DHT22;9420;50.876;7.012;2023-04-23T08:52:47;16.30;99.90
18581;DHT22;9420;50.876;7.012;2023-04-23T08:55:18;16.70;99.90
18581;DHT22;9420;50.876;7.012;2023-04-23T08:57:47;16.90;55.70
18581;DHT22;9420;50.876;7.012;2023-04-23T09:00:17;17.20;1.00
18581;DHT22;9420;50.876;7.012;2023-04-23T09:02:47;17.50;1.00
18581;DHT22;9420;50.876;7.012;2023-04-23T09:05:16;17.30;1.00
18581;DHT22;9420;50.876;7.012;2023-04-23T09:07:43;17.30;1.00
18581;DHT22;9420;50.876;7.012;2023-04-23T09:10:11;17.50;1.00
18581;DHT22;9420;50.876;7.012;2023-04-23T09:12:40;17.70;1.00
18581;DHT22;9420;50.876;7.012;2023-04-23T09:15:10;18.10;1.00
18581;DHT22;9420;50.876;7.012;2023-04-23T09:17:38;18.10;1.00
18581;DHT22;9420;50.876;7.012;2023-04-23T09:20:07;18.20;1.00
18581;DHT22;9420;50.876;7.012;2023-04-23T09:22:41;18.10;1.00
18581;DHT22;9420;50.876;7.012;2023-04-23T09:25:11;18.20;99.90
18581;DHT22;9420;50.876;7.012;2023-04-23T09:27:39;17.90;99.90
18581;DHT22;9420;50.876;7.012;2023-04-23T09:30:08;18.20;99.90
18581;DHT22;9420;50.876;7.012;2023-04-23T09:32:38;18.60;99.90
18581;DHT22;9420;50.876;7.012;2023-04-23T09:35:08;18.80;99.90
18581;DHT22;9420;50.876;7.012;2023-04-23T09:37:36;18.40;99.90
18581;DHT22;9420;50.876;7.012;2023-04-23T09:40:09;18.30;99.90
18581;DHT22;9420;50.876;7.012;2023-04-23T09:42:40;17.80;99.90
18581;DHT22;9420;50.876;7.012;2023-04-23T09:45:12;17.50;99.90
18581;DHT22;9420;50.876;7.012;2023-04-23T09:47:40;17.90;99.90
18581;DHT22;9420;50.876;7.012;2023-04-23T09:50:13;18.40;99.90
18581;DHT22;9420;50.876;7.012;2023-04-23T09:52:40;18.30;99.90
18581;DHT22;9420;50.876;7.012;2023-04-23T09:55:09;17.80;99.90
18581;DHT22;9420;50.876;7.012;2023-04-23T09:57:37;17.90;99.90
18581;DHT22;9420;50.876;7.012;2023-04-23T10:00:16;18.20;99.90
18581;DHT22;9420;50.876;7.012;2023-04-23T10:02:46;18.00;64.10
18581;DHT22;9420;50.876;7.012;2023-04-23T10:05:14;17.80;44.10
18581;DHT22;9420;50.876;7.012;2023-04-23T10:07:43;18.10;73.70
18581;DHT22;9420;50.876;7.012;2023-04-23T10:10:12;18.40;15.50
18581;DHT22;9420;50.876;7.012;2023-04-23T10:12:39;19.00;3.50
18581;DHT22;9420;50.876;7.012;2023-04-23T10:15:09;18.90;1.00
18581;DHT22;9420;50.876;7.012;2023-04-23T10:17:37;18.80;1.00
18581;DHT22;9420;50.876;7.012;2023-04-23T10:20:06;19.10;1.00
18581;DHT22;9420;50.876;7.012;2023-04-23T10:22:37;18.70;1.00
18581;DHT22;9420;50.876;7.012;2023-04-23T10:25:09;18.00;1.00
18581;DHT22;9420;50.876;7.012;2023-04-23T10:27:40;17.90;1.00
18581;DHT22;9420;50.876;7.012;2023-04-23T10:30:09;17.90;1.00
18581;DHT22;9420;50.876;7.012;2023-04-23T10:32:37;17.60;1.00
18581;DHT22;9420;50.876;7.012;2023-04-23T10:35:08;17.50;1.00
18581;DHT22;9420;50.876;7.012;2023-04-23T10:37:36;17.60;1.00
18581;DHT22;9420;50.876;7.012;2023-04-23T10:40:06;17.70;1.00
18581;DHT22;9420;50.876;7.012;2023-04-23T10:42:38;18.00;1.00
18581;DHT22;9420;50.876;7.012;2023-04-23T10:45:13;18.30;1.00
18581;DHT22;9420;50.876;7.012;2023-04-23T10:47:45;18.60;1.00
18581;DHT22;9420;50.876;7.012;2023-04-23T10:50:23;18.40;1.00
18581;DHT22;9420;50.876;7.012;2023-04-23T10:52:52;18.00;1.00
18581;DHT22;9420;50.876;7.012;2023-04-23T10:55:23;18.10;1.00
18581;DHT22;9420;50.876;7.012;2023-04-23T10:58:00;17.90;1.00
18581;DHT22;9420;50.876;7.012;2023-04-23T11:00:41;17.80;1.00
18581;DHT22;9420;50.876;7.012;2023-04-23T11:03:29;17.70;1.00
18581;DHT22;9420;50.876;7.012;2023-04-23T11:05:59;17.70;1.00
18581;DHT22;9420;50.876;7.012;2023-04-23T11:08:28;17.50;1.00
18581;DHT22;9420;50.876;7.012;2023-04-23T11:10:58;17.40;1.00
18581;DHT22;9420;50.876;7.012;2023-04-23T11:13:29;17.20;1.00
18581;DHT22;9420;50.876;7.012;2023-04-23T11:16:12;17.20;1.00
18581;DHT22;9420;50.876;7.012;2023-04-23T11:19:00;17.40;1.00
18581;DHT22;9420;50.876;7.012;2023-04-23T11:21:57;17.60;1.00
18581;DHT22;9420;50.876;7.012;2023-04-23T11:24:33;17.70;1.00
18581;DHT22;9420;50.876;7.012;2023-04-23T11:27:07;18.00;1.00
18581;DHT22;9420;50.876;7.012;2023-04-23T11:29:38;18.00;1.00
18581;DHT22;9420;50.876;7.012;2023-04-23T11:32:06;17.90;1.00
18581;DHT22;9420;50.876;7.012;2023-04-23T11:34:38;17.80;1.00
18581;DHT22;9420;50.876;7.012;2023-04-23T11:37:09;17.90;1.00
18581;DHT22;9420;50.876;7.012;2023-04-23T11:39:37;17.90;1.00
18581;DHT22;9420;50.876;7.012;2023-04-23T11:42:08;18.30;1.00
18581;DHT22;9420;50.876;7.012;2023-04-23T11:44:38;18.70;1.00
18581;DHT22;9420;50.876;7.012;2023-04-23T11:47:06;19.00;1.00
18581;DHT22;9420;50.876;7.012;2023-04-23T11:49:35;19.10;1.00
18581;DHT22;9420;50.876;7.012;2023-04-23T11:52:03;19.30;1.00
18581;DHT22;9420;50.876;7.012;2023-04-23T11:54:31;20.10;1.00
18581;DHT22;9420;50.876;7.012;2023-04-23T11:56:59;20.30;1.00
18581;DHT22;9420;50.876;7.012;2023-04-23T11:59:29;20.50;1.00
18581;DHT22;9420;50.876;7.012;2023-04-23T12:01:58;21.00;1.00
18581;DHT22;9420;50.876;7.012;2023-04-23T12:04:26;20.70;1.00
18581;DHT22;9420;50.876;7.012;2023-04-23T12:06:55;20.60;1.00
18581;DHT22;9420;50.876;7.012;2023-04-23T12:09:25;20.10;1.00
18581;DHT22;9420;50.876;7.012;2023-04-23T12:11:54;20.00;1.00
18581;DHT22;9420;50.876;7.012;2023-04-23T12:14:25;19.70;1.00
18581;DHT22;9420;50.876;7.012;2023-04-23T12:16:54;20.40;1.00
18581;DHT22;9420;50.876;7.012;2023-04-23T12:19:28;21.50;1.00
18581;DHT22;9420;50.876;7.012;2023-04-23T12:21:58;22.30;1.00
18581;DHT22;9420;50.876;7.012;2023-04-23T12:24:27;22.80;1.00
18581;DHT22;9420;50.876;7.012;2023-04-23T12:26:57;22.20;1.00
18581;DHT22;9420;50.876;7.012;2023-04-23T12:29:29;22.60;1.00
18581;DHT22;9420;50.876;7.012;2023-04-23T12:31:58;21.90;99.90
18581;DHT22;9420;50.876;7.012;2023-04-23T12:34:27;22.70;1.00
18581;DHT22;9420;50.876;7.012;2023-04-23T12:36:56;23.40;1.00
18581;DHT22;9420;50.876;7.012;2023-04-23T12:39:27;23.20;99.90
18581;DHT22;9420;50.876;7.012;2023-04-23T12:41:56;22.20;99.90
18581;DHT22;9420;50.876;7.012;2023-04-23T12:44:27;22.00;99.90
18581;DHT22;9420;50.876;7.012;2023-04-23T12:46:55;22.30;99.90
18581;DHT22;9420;50.876;7.012;2023-04-23T12:49:24;22.10;99.90
18581;DHT22;9420;50.876;7.012;2023-04-23T12:51:54;21.50;99.90
18581;DHT22;9420;50.876;7.012;2023-04-23T12:54:26;21.10;99.90
18581;DHT22;9420;50.876;7.012;2023-04-23T12:56:56;21.00;99.90
18581;DHT22;9420;50.876;7.012;2023-04-23T12:59:23;20.80;99.90
18581;DHT22;9420;50.876;7.012;2023-04-23T13:01:50;21.00;99.90
18581;DHT22;9420;50.876;7.012;2023-04-23T13:04:17;20.70;99.90
18581;DHT22;9420;50.876;7.012;2023-04-23T13:06:45;20.80;99.90
18581;DHT22;9420;50.876;7.012;2023-04-23T13:09:13;19.60;99.90
18581;DHT22;9420;50.876;7.012;2023-04-23T13:11:40;19.30;99.90
18581;DHT22;9420;50.876;7.012;2023-04-23T13:14:08;19.50;99.90
18581;DHT22;9420;50.876;7.012;2023-04-23T13:16:35;20.20;99.90
18581;DHT22;9420;50.876;7.012;2023-04-23T13:19:03;20.60;99.90
18581;DHT22;9420;50.876;7.012;2023-04-23T13:21:30;20.10;99.90
18581;DHT22;9420;50.876;7.012;2023-04-23T13:23:57;19.70;99.90
18581;DHT22;9420;50.876;7.012;2023-04-23T13:26:25;19.70;99.90
18581;DHT22;9420;50.876;7.012;2023-04-23T13:28:55;19.60;99.90
18581;DHT22;9420;50.876;7.012;2023-04-23T13:31:22;19.50;99.90
18581;DHT22;9420;50.876;7.012;2023-04-23T13:33:48;19.10;99.90
18581;DHT22;9420;50.876;7.012;2023-04-23T13:36:15;18.80;99.90
18581;DHT22;9420;50.876;7.012;2023-04-23T13:38:43;18.50;99.90
18581;DHT22;9420;50.876;7.012;2023-04-23T13:41:10;18.40;99.90
18581;DHT22;9420;50.876;7.012;2023-04-23T13:43:38;18.20;99.90
18581;DHT22;9420;50.876;7.012;2023-04-23T13:46:05;18.10;99.90
18581;DHT22;9420;50.876;7.012;2023-04-23T13:48:32;18.10;99.90
18581;DHT22;9420;50.876;7.012;2023-04-23T13:51:00;18.00;99.90
18581;DHT22;9420;50.876;7.012;2023-04-23T13:53:27;17.80;99.90
18581;DHT22;9420;50.876;7.012;2023-04-23T13:55:55;17.60;99.90
18581;DHT22;9420;50.876;7.012;2023-04-23T13:58:23;17.40;99.90
18581;DHT22;9420;50.876;7.012;2023-04-23T14:00:51;17.30;99.90
18581;DHT22;9420;50.876;7.012;2023-04-23T14:03:18;17.50;1.00
18581;DHT22;9420;50.876;7.012;2023-04-23T14:05:45;17.80;1.00
18581;DHT22;9420;50.876;7.012;2023-04-23T14:08:12;18.10;1.00
18581;DHT22;9420;50.876;7.012;2023-04-23T14:10:39;18.20;1.00
18581;DHT22;9420;50.876;7.012;2023-04-23T14:13:06;18.20;1.00
18581;DHT22;9420;50.876;7.012;2023-04-23T14:15:34;18.20;1.00
18581;DHT22;9420;50.876;7.012;2023-04-23T14:18:02;18.10;1.00
18581;DHT22;9420;50.876;7.012;2023-04-23T14:20:30;17.90;1.00
18581;DHT22;9420;50.876;7.012;2023-04-23T14:23:10;17.80;1.00
18581;DHT22;9420;50.876;7.012;2023-04-23T14:26:08;17.80;1.00
18581;DHT22;9420;50.876;7.012;2023-04-23T14:28:39;17.60;1.00
18581;DHT22;9420;50.876;7.012;2023-04-23T14:31:11;17.50;1.00
18581;DHT22;9420;50.876;7.012;2023-04-23T14:33:39;17.60;1.00
18581;DHT22;9420;50.876;7.012;2023-04-23T14:36:06;17.50;1.00
18581;DHT22;9420;50.876;7.012;2023-04-23T14:38:33;17.50;1.00
18581;DHT22;9420;50.876;7.012;2023-04-23T14:41:01;17.40;1.00
18581;DHT22;9420;50.876;7.012;2023-04-23T14:43:28;17.30;1.00
18581;DHT22;9420;50.876;7.012;2023-04-23T14:45:55;17.30;1.00
18581;DHT22;9420;50.876;7.012;2023-04-23T14:48:21;17.30;1.00
18581;DHT22;9420;50.876;7.012;2023-04-23T14:50:50;17.30;1.00
18581;DHT22;9420;50.876;7.012;2023-04-23T14:53:17;17.30;1.00
18581;DHT22;9420;50.876;7.012;2023-04-23T14:55:44;17.40;1.00
18581;DHT22;9420;50.876;7.012;2023-04-23T14:58:12;17.50;1.00
18581;DHT22;9420;50.876;7.012;2023-04-23T15:00:39;17.60;1.00
18581;DHT22;9420;50.876;7.012;2023-04-23T15:03:06;17.60;1.00
18581;DHT22;9420;50.876;7.012;2023-04-23T15:05:35;17.50;1.00
18581;DHT22;9420;50.876;7.012;2023-04-23T15:08:03;17.50;1.00
18581;DHT22;9420;50.876;7.012;2023-04-23T15:10:30;17.50;1.00
18581;DHT22;9420;50.876;7.012;2023-04-23T15:13:01;17.40;1.00
18581;DHT22;9420;50.876;7.012;2023-04-23T15:15:41;17.30;1.00
18581;DHT22;9420;50.876;7.012;2023-04-23T15:18:09;17.10;1.00
18581;DHT22;9420;50.876;7.012;2023-04-23T15:20:36;17.10;1.00
18581;DHT22;9420;50.876;7.012;2023-04-23T15:23:05;17.00;1.00
18581;DHT22;9420;50.876;7.012;2023-04-23T15:25:32;17.00;1.00
18581;DHT22;9420;50.876;7.012;2023-04-23T15:28:00;17.00;1.00
18581;DHT22;9420;50.876;7.012;2023-04-23T15:30:28;16.90;1.00
18581;DHT22;9420;50.876;7.012;2023-04-23T15:32:55;16.90;1.00
18581;DHT22;9420;50.876;7.012;2023-04-23T15:35:23;16.80;22.00
18581;DHT22;9420;50.876;7.012;2023-04-23T15:37:50;16.70;1.00
18581;DHT22;9420;50.876;7.012;2023-04-23T15:40:19;16.70;1.00
18581;DHT22;9420;50.876;7.012;2023-04-23T15:42:46;16.50;20.70
18581;DHT22;9420;50.876;7.012;2023-04-23T15:45:14;16.50;99.90
18581;DHT22;9420;50.876;7.012;2023-04-23T15:47:42;16.40;99.90
18581;DHT22;9420;50.876;7.012;2023-04-23T15:50:10;16.20;99.90
18581;DHT22;9420;50.876;7.012;2023-04-23T15:52:38;16.10;99.90
18581;DHT22;9420;50.876;7.012;2023-04-23T15:55:07;16.00;1.00
18581;DHT22;9420;50.876;7.012;2023-04-23T15:57:36;15.90;1.00
18581;DHT22;9420;50.876;7.012;2023-04-23T16:00:03;15.70;1.00
18581;DHT22;9420;50.876;7.012;2023-04-23T16:02:31;15.60;1.00
18581;DHT22;9420;50.876;7.012;2023-04-23T16:04:59;15.40;1.00